Time;durP1;ratioP1;P1;durP2;ratioP2;P2;SDS_P1;SDS_P2;PMS_P1;PMS_P2;Temp;Humidity;BMP_temperature;BMP_pressure;BME280_temperature;BME280_humidity;BME280_pressure;Samples;Min_cycle;Max_cycle;Signal;HPM_P1;HPM_P2
2022/12/04 00:01:34;;;;;;;10.98;7.40;;;;;;;19.67;52.92;96844.63;13270920;22;20425;-57
2022/12/04 00:06:54;;;;;;;10.23;7.25;;;;;;;19.65;53.06;96838.75;13271352;22;20062;-58
2022/12/04 00:12:14;;;;;;;12.27;7.43;;;;;;;19.65;52.85;96849.56;13249258;22;20014;-57
2022/12/04 00:17:33;;;;;;;9.82;6.93;;;;;;;19.62;52.95;96859.13;13270706;22;20460;-56
2022/12/04 00:22:53;;;;;;;10.98;7.30;;;;;;;19.60;53.02;96847.84;13249410;22;20014;-58
2022/12/04 00:28:12;;;;;;;10.77;7.40;;;;;;;19.58;52.82;96847.34;13249048;22;20017;-57
2022/12/04 00:33:31;;;;;;;10.73;7.50;;;;;;;19.58;52.92;96843.88;13248899;22;20013;-58
2022/12/04 00:38:51;;;;;;;9.70;7.35;;;;;;;19.56;52.77;96844.19;13249003;22;20014;-57
2022/12/04 00:44:10;;;;;;;10.15;6.82;;;;;;;19.55;52.78;96835.28;13248193;22;20430;-57
2022/12/04 00:49:30;;;;;;;9.32;6.55;;;;;;;19.54;52.76;96832.91;13248799;22;20014;-54
2022/12/04 00:54:49;;;;;;;12.02;6.55;;;;;;;19.52;52.74;96835.94;13248646;22;20314;-58
2022/12/04 01:00:09;;;;;;;8.90;6.53;;;;;;;19.51;52.73;96830.84;13248654;22;20045;-57
2022/12/04 01:05:28;;;;;;;8.77;6.40;;;;;;;19.49;52.76;96825.78;13247570;22;20074;-58
2022/12/04 01:10:49;;;;;;;8.27;6.65;;;;;;;19.48;52.77;96826.91;13248426;22;20014;-57
2022/12/04 01:16:21;;;;;;;8.65;6.68;;;;;;;19.45;52.69;96819.44;13269701;22;20010;-57
2022/12/04 01:21:41;;;;;;;7.68;6.07;;;;;;;19.46;52.84;96817.50;13247572;22;20016;-57
2022/12/04 01:27:00;;;;;;;6.57;5.47;;;;;;;19.43;52.65;96812.78;13248057;22;20025;-57
2022/12/04 01:32:20;;;;;;;9.52;6.70;;;;;;;19.42;52.77;96803.06;13247091;22;20453;-57
2022/12/04 01:37:39;;;;;;;7.60;5.53;;;;;;;19.41;52.61;96801.50;13247536;22;20018;-57
2022/12/04 01:42:59;;;;;;;7.85;6.18;;;;;;;19.39;52.50;96793.72;13247667;22;20024;-57
2022/12/04 01:48:38;;;;;;;8.50;6.05;;;;;;;19.37;52.51;96785.13;13247546;22;20014;-57
2022/12/04 01:54:00;;;;;;;6.75;5.72;;;;;;;19.36;52.52;96792.44;13247417;22;20014;-57
2022/12/04 01:59:23;;;;;;;8.93;5.78;;;;;;;19.35;52.38;96790.84;13245173;22;20010;-57
2022/12/04 02:04:43;;;;;;;7.43;5.68;;;;;;;19.33;52.30;96789.59;13247600;22;20018;-53
2022/12/04 02:10:05;;;;;;;7.90;5.85;;;;;;;19.31;52.30;96784.50;13247400;22;20014;-53
2022/12/04 02:15:34;;;;;;;7.32;5.95;;;;;;;19.29;52.13;96770.53;13247488;22;20037;-52
2022/12/04 02:21:26;;;;;;;7.70;5.70;;;;;;;19.28;52.18;96773.56;13247075;22;20037;-52
2022/12/04 02:26:50;;;;;;;7.95;5.45;;;;;;;19.28;52.28;96773.56;13247089;22;20018;-53
2022/12/04 02:32:19;;;;;;;5.95;5.10;;;;;;;19.26;52.15;96792.00;13247264;22;20017;-54
2022/12/04 02:37:44;;;;;;;8.05;5.50;;;;;;;19.25;52.25;96785.00;13228101;22;20075;-52
2022/12/04 03:06:28;;;;;;;6.65;5.00;;;;;;;19.13;52.16;96780.25;13228347;22;20018;-52
2022/12/04 03:11:57;;;;;;;6.35;5.55;;;;;;;19.11;52.16;96777.91;13206166;22;20067;-53
2022/12/04 03:17:24;;;;;;;7.10;5.13;;;;;;;19.10;52.10;96781.69;13183193;22;20408;-53
2022/12/04 03:22:49;;;;;;;6.63;5.18;;;;;;;19.10;52.17;96784.41;13161093;22;20011;-53
2022/12/04 03:28:18;;;;;;;5.53;4.68;;;;;;;19.10;52.17;96783.63;13182946;22;20011;-53
2022/12/04 03:33:38;;;;;;;;;;;;;;;19.07;51.94;96779.66;13184123;22;20014;-52
2022/12/04 03:39:04;;;;;;;7.40;5.10;;;;;;;19.07;52.06;96782.38;13205613;22;20287;-53
2022/12/04 03:44:31;;;;;;;6.47;4.78;;;;;;;19.05;52.00;96779.19;13205065;22;20071;-53
2022/12/04 03:49:56;;;;;;;5.72;4.47;;;;;;;19.05;52.16;96772.97;13181794;22;20014;-52
2022/12/04 03:55:26;;;;;;;5.47;4.72;;;;;;;19.03;51.92;96773.28;13160430;22;20020;-53
2022/12/04 04:00:46;;;;;;;5.32;4.72;;;;;;;19.02;51.96;96763.63;13205033;22;20059;-52
2022/12/04 04:06:16;;;;;;;7.28;5.10;;;;;;;19.01;52.01;96764.72;13184052;22;20014;-52
2022/12/04 04:11:49;;;;;;;5.47;4.47;;;;;;;18.99;52.00;96764.25;13181599;22;20014;-53
2022/12/04 04:28:41;;;;;;;5.53;4.40;;;;;;;18.95;51.96;96766.00;13185560;22;20445;-53
2022/12/04 04:34:06;;;;;;;6.88;4.72;;;;;;;18.93;51.87;96752.03;13183529;22;20010;-52
2022/12/04 04:39:38;;;;;;;4.97;4.18;;;;;;;18.93;51.91;96743.94;13182363;22;20058;-52
2022/12/04 04:45:05;;;;;;;6.57;4.57;;;;;;;18.91;51.88;96741.56;13159557;22;20017;-52
2022/12/04 04:50:25;;;;;;;4.65;4.15;;;;;;;18.89;51.95;96737.59;13180516;22;20316;-53
2022/12/04 04:55:45;;;;;;;4.90;4.40;;;;;;;18.89;51.93;96732.19;13181885;22;20542;-53
2022/12/04 05:01:08;;;;;;;5.05;4.47;;;;;;;18.88;51.80;96746.81;13180516;22;20015;-52
2022/12/04 05:06:28;;;;;;;4.70;4.18;;;;;;;18.87;51.94;96745.22;13161916;22;20450;-53
2022/12/04 05:11:47;;;;;;;4.32;3.92;;;;;;;18.85;51.95;96752.84;13248397;22;20017;-52
2022/12/04 05:17:06;;;;;;;4.40;3.80;;;;;;;18.84;51.84;96757.47;13248322;22;20322;-53
2022/12/04 05:22:29;;;;;;;5.50;4.28;;;;;;;18.83;51.72;96749.69;13248045;22;20063;-53
2022/12/04 05:27:48;;;;;;;4.30;3.90;;;;;;;18.80;51.85;96742.22;13248090;22;20013;-52
2022/12/04 05:33:09;;;;;;;4.18;3.78;;;;;;;18.80;51.80;96755.72;13248255;22;20010;-52
2022/12/04 05:38:28;;;;;;;4.43;3.83;;;;;;;18.77;51.84;96736.31;13247955;22;20062;-53
2022/12/04 05:43:48;;;;;;;3.83;3.47;;;;;;;18.78;51.72;96753.31;13247550;22;20037;-53
2022/12/04 05:49:07;;;;;;;4.80;3.90;;;;;;;18.75;51.80;96753.94;13247627;22;20017;-52
2022/12/04 05:54:27;;;;;;;4.45;3.80;;;;;;;18.75;51.88;96759.34;13247881;22;20033;-53
2022/12/04 05:59:46;;;;;;;3.90;3.55;;;;;;;18.73;51.85;96756.19;13247441;22;20021;-51
2022/12/04 06:05:06;;;;;;;4.93;3.88;;;;;;;18.72;51.74;96760.78;13246863;22;20470;-53
2022/12/04 06:10:25;;;;;;;4.32;3.90;;;;;;;18.70;51.75;96759.50;13246461;22;20022;-52
2022/12/04 06:15:45;;;;;;;4.45;3.72;;;;;;;18.70;51.82;96754.91;13269187;22;20017;-52
2022/12/04 06:21:04;;;;;;;4.43;3.88;;;;;;;18.69;51.70;96766.03;13247313;22;20014;-53
2022/12/04 06:26:25;;;;;;;4.60;3.85;;;;;;;18.66;51.88;96762.06;13247222;22;20066;-52
2022/12/04 06:31:44;;;;;;;4.13;3.72;;;;;;;18.66;51.81;96770.16;13247042;22;20014;-52
2022/12/04 06:37:04;;;;;;;4.03;3.60;;;;;;;18.66;51.72;96772.03;13268861;22;20341;-52
2022/12/04 06:42:23;;;;;;;3.67;3.38;;;;;;;18.65;51.75;96770.47;13261411;22;20345;-51
2022/12/04 06:47:42;;;;;;;3.97;3.53;;;;;;;18.63;51.77;96770.00;13247125;22;20021;-52
2022/12/04 06:53:02;;;;;;;4.55;4.03;;;;;;;18.62;51.83;96777.31;13246376;22;20832;-52
2022/12/04 06:58:21;;;;;;;4.68;3.92;;;;;;;18.63;51.74;96778.09;13246880;22;20018;-52
2022/12/04 07:03:41;;;;;;;4.45;3.80;;;;;;;18.63;51.89;96778.88;13247026;22;20010;-52
2022/12/04 07:09:06;;;;;;;3.95;3.55;;;;;;;18.64;51.75;96772.38;13245894;22;20092;-53
2022/12/04 07:14:26;;;;;;;3.58;3.17;;;;;;;18.65;51.82;96775.88;13246761;22;20375;-52
2022/12/04 07:19:45;;;;;;;3.97;3.58;;;;;;;18.66;51.82;96788.25;13248207;22;20322;-53
2022/12/04 07:25:05;;;;;;;3.55;3.15;;;;;;;18.67;51.80;96787.91;13250324;22;20010;-53
2022/12/04 07:30:24;;;;;;;3.50;3.20;;;;;;;18.69;51.93;96787.63;13250313;22;20017;-53
2022/12/04 07:35:44;;;;;;;3.85;3.45;;;;;;;18.70;51.91;96783.78;13249456;22;20453;-52
2022/12/04 07:41:04;;;;;;;3.85;3.28;;;;;;;18.71;51.85;96788.09;13250184;22;20024;-53
2022/12/04 07:46:25;;;;;;;3.80;3.30;;;;;;;18.72;51.91;96795.88;13249308;22;20022;-53
2022/12/04 07:51:45;;;;;;;3.30;3.00;;;;;;;18.74;51.92;96799.03;13271323;22;20445;-52
2022/12/04 07:57:04;;;;;;;3.63;3.15;;;;;;;18.76;51.87;96796.81;13249107;22;20460;-52
2022/12/04 08:02:24;;;;;;;3.42;3.03;;;;;;;18.78;51.87;96801.91;13249880;22;20018;-53
2022/12/04 08:07:43;;;;;;;3.47;3.17;;;;;;;18.81;51.84;96805.91;13270975;22;20464;-52
2022/12/04 08:13:03;;;;;;;3.90;2.95;;;;;;;18.83;51.89;96809.06;13248737;22;20445;-52
2022/12/04 08:18:22;;;;;;;5.00;2.80;;;;;;;18.86;51.84;96800.34;13270800;22;20018;-53
2022/12/04 08:23:42;;;;;;;3.35;3.05;;;;;;;18.86;51.66;96806.53;13248570;22;20323;-53
2022/12/04 08:29:02;;;;;;;4.05;3.40;;;;;;;18.89;51.61;96797.78;13249742;22;20021;-53
2022/12/04 08:34:22;;;;;;;4.30;2.85;;;;;;;18.90;51.67;96802.06;13249095;22;20022;-52
2022/12/04 08:39:41;;;;;;;3.40;3.10;;;;;;;18.94;51.62;96799.53;13249056;22;20087;-52
2022/12/04 08:45:01;;;;;;;3.20;2.90;;;;;;;18.95;51.77;96790.31;13248952;22;20014;-52
2022/12/04 08:50:20;;;;;;;3.20;2.90;;;;;;;18.97;51.81;96793.47;13270164;22;20017;-52
2022/12/04 08:55:40;;;;;;;3.50;3.20;;;;;;;19.00;51.75;96795.53;13248696;22;20036;-53
2022/12/04 09:01:04;;;;;;;4.15;3.75;;;;;;;19.02;51.48;96801.41;13269838;22;20010;-51
2022/12/04 09:06:24;;;;;;;3.20;2.90;;;;;;;19.05;51.76;96790.00;13248057;22;20075;-51
2022/12/04 09:11:44;;;;;;;4.00;3.20;;;;;;;19.08;51.63;96794.72;13269728;22;20056;-52
2022/12/04 09:17:04;;;;;;;3.25;2.92;;;;;;;19.10;51.49;96797.91;13248008;22;20014;-52
2022/12/04 09:22:23;;;;;;;3.08;2.78;;;;;;;19.12;51.56;96784.88;13248265;22;20090;-52
2022/12/04 09:27:43;;;;;;;3.17;2.88;;;;;;;19.17;51.58;96783.94;13247322;22;20546;-52
2022/12/04 09:33:03;;;;;;;5.13;3.30;;;;;;;19.18;51.67;96780.09;13269348;22;20021;-52
2022/12/04 09:38:22;;;;;;;2.95;2.65;;;;;;;19.21;51.57;96778.66;13246976;22;20021;-48
2022/12/04 09:43:46;;;;;;;3.17;2.88;;;;;;;19.23;51.61;96785.34;13247130;22;20037;-53
2022/12/04 09:49:15;;;;;;;3.00;2.72;;;;;;;19.25;51.53;96791.22;13247608;22;20018;-52
2022/12/04 09:54:40;;;;;;;3.30;2.72;;;;;;;19.28;51.50;96781.66;13247547;22;20028;-51
2022/12/04 09:59:59;;;;;;;3.58;3.00;;;;;;;19.30;51.33;96774.03;13223666;22;20014;-51
2022/12/04 10:05:43;;;;;;;3.00;2.53;;;;;;;19.33;51.35;96768.78;13247367;22;20054;-51
2022/12/04 10:11:24;;;;;;;4.93;2.80;;;;;;;19.36;51.22;96770.03;13222733;22;20496;-52
2022/12/04 10:17:06;;;;;;;5.95;3.65;;;;;;;19.39;51.96;96757.81;13246082;22;20479;-51
2022/12/04 10:22:51;;;;;;;15.00;9.32;;;;;;;19.43;52.44;96758.75;13223622;22;20013;-51
2022/12/04 10:28:14;;;;;;;4.60;4.07;;;;;;;19.46;52.63;96760.78;13247114;22;20014;-52
2022/12/04 10:33:48;;;;;;;15.60;6.28;;;;;;;19.48;51.12;96743.16;13247142;22;20020;-50
2022/12/04 10:39:15;;;;;;;17.88;13.20;;;;;;;19.46;48.94;96753.47;13246163;22;20018;-52
2022/12/04 10:44:35;;;;;;;15.70;13.52;;;;;;;19.17;42.65;96748.81;13223289;22;20021;-52
2022/12/04 10:49:58;;;;;;;16.50;14.80;;;;;;;18.92;40.21;96753.16;13246004;22;20021;-52
2022/12/04 10:55:33;;;;;;;17.33;14.23;;;;;;;19.02;44.70;96752.81;13270803;22;20066;-52
2022/12/04 11:01:03;;;;;;;15.90;12.07;;;;;;;19.19;46.32;96745.78;13250767;22;20067;-52
2022/12/04 11:06:24;;;;;;;15.18;11.73;;;;;;;19.29;46.51;96740.03;13250126;22;20449;-50
2022/12/04 11:11:43;;;;;;;13.32;11.05;;;;;;;19.36;47.08;96738.41;13250026;22;20457;-46
2022/12/04 11:17:05;;;;;;;13.05;10.15;;;;;;;19.39;47.72;96719.97;13249798;22;20464;-47
2022/12/04 11:22:25;;;;;;;12.18;10.40;;;;;;;19.42;48.02;96725.50;13249588;22;20491;-46
2022/12/04 11:27:51;;;;;;;13.68;10.55;;;;;;;19.46;49.15;96725.66;13226784;22;20014;-47
2022/12/04 11:33:35;;;;;;;12.20;10.30;;;;;;;19.46;50.33;96723.75;13250437;22;20010;-48
2022/12/04 11:39:10;;;;;;;14.25;11.98;;;;;;;19.48;51.35;96718.84;13271710;22;20061;-47
2022/12/04 11:44:33;;;;;;;14.18;12.80;;;;;;;19.51;52.35;96722.78;13249722;22;20014;-48
2022/12/04 11:50:18;;;;;;;14.73;13.05;;;;;;;19.53;54.07;96715.16;13249803;22;20033;-47
2022/12/04 11:55:47;;;;;;;18.13;13.57;;;;;;;19.54;54.28;96720.22;13226244;22;20021;-48
2022/12/04 12:01:19;;;;;;;18.38;13.80;;;;;;;19.55;53.10;96716.38;13247212;22;20014;-48
2022/12/04 12:07:02;;;;;;;15.75;11.82;;;;;;;19.55;54.26;96694.78;13249023;22;20018;-49
2022/12/04 12:12:37;;;;;;;15.38;12.43;;;;;;;19.56;54.26;96696.38;13270799;22;20017;-48
2022/12/04 12:18:21;;;;;;;18.20;14.55;;;;;;;19.57;54.72;96697.16;13249464;22;20018;-46
2022/12/04 12:23:49;;;;;;;15.43;12.25;;;;;;;19.58;55.40;96687.13;13224678;22;20010;-51
2022/12/04 12:29:28;;;;;;;15.32;11.48;;;;;;;19.55;55.13;96683.97;13249440;22;20017;-50
2022/12/04 12:34:48;;;;;;;15.00;11.07;;;;;;;19.55;55.10;96697.47;13248396;22;20429;-46
2022/12/04 12:40:14;;;;;;;12.50;10.13;;;;;;;19.56;54.99;96690.97;13248738;22;20014;-48
2022/12/04 12:45:43;;;;;;;11.88;10.05;;;;;;;19.56;55.11;96680.16;13225079;22;20058;-50
2022/12/04 12:51:24;;;;;;;33.83;20.08;;;;;;;19.55;55.07;96666.97;13270282;22;20014;-47
2022/12/04 12:56:48;;;;;;;31.40;20.48;;;;;;;19.57;55.36;96672.84;13248746;22;20018;-46
2022/12/04 13:02:28;;;;;;;51.05;31.08;;;;;;;19.56;55.87;96669.34;13246142;22;20341;-47
2022/12/04 13:07:47;;;;;;;;;;;;;;;19.57;56.53;96670.13;13248219;22;20086;-45
2022/12/04 13:13:14;;;;;;;37.35;22.70;;;;;;;19.55;55.94;96656.94;13246527;22;19913;-49
2022/12/04 13:18:41;;;;;;;34.78;21.98;;;;;;;19.56;55.90;96655.84;13224155;22;20018;-48
2022/12/04 13:24:22;;;;;;;31.35;20.00;;;;;;;19.55;55.96;96656.94;13248135;22;20089;-50
2022/12/04 13:29:51;;;;;;;29.23;17.77;;;;;;;19.53;55.61;96653.00;13224157;22;20018;-50
2022/12/04 13:35:56;;;;;;;28.05;17.60;;;;;;;19.52;55.69;96640.59;13224027;22;20018;-49
2022/12/04 13:41:19;;;;;;;26.95;16.80;;;;;;;19.50;55.51;96649.06;13268818;22;20456;-47
2022/12/04 13:46:52;;;;;;;24.13;15.48;;;;;;;19.50;55.33;96646.34;13247395;22;20036;-48
2022/12/04 13:52:39;;;;;;;22.00;14.63;;;;;;;19.49;55.07;96643.97;13223602;22;20017;-48
2022/12/04 13:58:23;;;;;;;18.48;13.02;;;;;;;19.49;54.92;96646.66;13247438;22;20066;-50
2022/12/04 14:03:48;;;;;;;17.13;12.10;;;;;;;19.47;54.79;96640.81;13246942;22;20020;-48
2022/12/04 14:09:21;;;;;;;16.67;11.93;;;;;;;19.45;54.51;96633.00;13244761;22;20010;-48
2022/12/04 14:14:44;;;;;;;14.95;11.18;;;;;;;19.45;54.61;96646.53;13224142;22;20088;-45
2022/12/04 14:20:07;;;;;;;14.30;10.70;;;;;;;19.45;54.36;96646.53;13246915;22;20017;-48
2022/12/04 14:25:36;;;;;;;15.02;9.48;;;;;;;19.43;53.97;96643.34;13245980;22;20445;-47
2022/12/04 14:31:03;;;;;;;13.43;10.93;;;;;;;19.41;51.80;96645.59;13272275;22;20009;-45
2022/12/04 14:36:43;;;;;;;10.73;8.50;;;;;;;19.38;52.63;96640.06;13227904;22;20018;-46
2022/12/04 14:42:12;;;;;;;11.50;8.93;;;;;;;19.38;52.58;96638.13;13251181;22;20018;-48
2022/12/04 14:47:56;;;;;;;11.65;9.00;;;;;;;19.38;52.28;96629.25;13250304;22;20472;-46
2022/12/04 14:53:22;;;;;;;8.75;7.20;;;;;;;19.37;52.19;96633.88;13251384;22;20078;-45
2022/12/04 14:58:42;;;;;;;9.00;7.80;;;;;;;19.36;52.08;96637.66;13250313;22;20509;-48
2022/12/04 15:04:18;;;;;;;8.90;7.10;;;;;;;19.34;51.48;96632.59;13272260;22;20014;-48
2022/12/04 15:15:26;;;;;;;9.75;7.47;;;;;;;19.32;51.50;96634.03;13250619;22;20010;-48
2022/12/04 15:20:48;;;;;;;10.55;7.30;;;;;;;19.30;51.94;96628.97;13271873;22;20010;-46
2022/12/04 15:26:22;;;;;;;9.73;6.75;;;;;;;19.29;51.93;96623.91;13249563;22;20017;-47
2022/12/04 15:31:52;;;;;;;10.13;6.93;;;;;;;19.30;51.87;96622.78;13226488;22;20010;-48
2022/12/04 15:37:17;;;;;;;9.15;6.60;;;;;;;19.28;51.97;96619.59;13228038;22;20014;-47
2022/12/04 15:42:37;;;;;;;7.50;6.68;;;;;;;19.26;51.36;96611.03;13247230;22;20035;-48
2022/12/04 15:47:57;;;;;;;9.63;6.80;;;;;;;19.25;51.67;96606.75;13249802;22;20015;-48
2022/12/04 15:53:30;;;;;;;7.88;6.57;;;;;;;19.25;51.52;96614.84;13250033;22;20009;-49
2022/12/04 15:58:55;;;;;;;8.57;6.40;;;;;;;19.22;51.62;96605.50;13225911;22;20018;-47
2022/12/04 16:04:20;;;;;;;8.75;6.57;;;;;;;19.22;51.99;96600.09;13225730;22;20384;-45
2022/12/04 16:09:50;;;;;;;10.05;6.05;;;;;;;19.21;52.46;96595.81;13248781;22;20033;-48
2022/12/04 16:15:10;;;;;;;7.50;6.00;;;;;;;19.20;52.37;96596.94;13248698;22;20021;-45
2022/12/04 16:20:32;;;;;;;7.60;6.25;;;;;;;19.20;52.51;96607.72;13249291;22;20014;-45
2022/12/04 16:25:52;;;;;;;7.88;6.20;;;;;;;19.19;53.13;96613.44;13270208;22;20014;-45
2022/12/04 16:31:12;;;;;;;7.75;6.15;;;;;;;19.18;53.45;96604.56;13249246;22;20109;-55
2022/12/04 16:36:32;;;;;;;7.45;5.70;;;;;;;19.17;53.88;96608.41;13248817;22;20020;-54
2022/12/04 16:41:51;;;;;;;7.93;5.93;;;;;;;19.17;54.24;96608.41;13269949;22;20438;-56
2022/12/04 16:47:12;;;;;;;87.80;49.88;;;;;;;19.16;54.38;96613.00;13248677;22;20374;-57
2022/12/04 16:52:31;;;;;;;21.92;14.52;;;;;;;19.15;54.54;96611.41;13247920;22;20010;-56
2022/12/04 16:57:51;;;;;;;13.90;10.70;;;;;;;19.14;54.45;96600.94;13248291;22;20033;-45
2022/12/04 17:03:22;;;;;;;13.57;10.20;;;;;;;19.13;54.56;96592.06;13248368;22;20013;-48
2022/12/04 17:08:44;;;;;;;14.32;9.15;;;;;;;19.13;54.81;96589.34;13247729;22;20046;-45
2022/12/04 17:14:06;;;;;;;13.13;8.98;;;;;;;19.12;54.34;96581.56;13247960;22;20013;-49
2022/12/04 17:19:28;;;;;;;13.15;10.20;;;;;;;19.10;53.50;96576.50;13248040;22;20066;-46
2022/12/04 17:24:47;;;;;;;9.13;8.00;;;;;;;19.09;54.23;96580.31;13246850;22;20071;-46
2022/12/04 17:30:08;;;;;;;12.90;8.38;;;;;;;19.09;54.11;96579.50;13269010;22;20429;-45
2022/12/04 17:35:27;;;;;;;10.15;8.18;;;;;;;19.08;54.34;96584.13;13246629;22;20389;-46
2022/12/04 17:41:00;;;;;;;9.93;7.57;;;;;;;19.08;54.31;96597.63;13247397;22;20025;-48
2022/12/04 17:46:23;;;;;;;10.07;7.95;;;;;;;19.07;54.29;96585.25;13268764;22;20067;-46
2022/12/04 17:51:43;;;;;;;10.60;7.90;;;;;;;19.07;54.32;96593.38;13247461;22;20336;-45
2022/12/04 17:57:03;;;;;;;10.68;7.72;;;;;;;19.07;54.21;96593.38;13247415;22;20067;-46
2022/12/04 18:02:22;;;;;;;9.27;7.38;;;;;;;19.04;54.25;96594.00;13246154;22;20014;-47
2022/12/04 18:07:42;;;;;;;8.68;7.40;;;;;;;19.04;54.19;96593.22;13246990;22;20022;-46
2022/12/04 18:13:01;;;;;;;9.23;7.40;;;;;;;19.02;54.30;96592.75;13246262;22;20021;-44
2022/12/04 18:18:21;;;;;;;9.25;7.35;;;;;;;19.02;54.24;96592.75;13246887;22;20018;-46
2022/12/04 18:23:44;;;;;;;10.25;7.30;;;;;;;19.00;54.33;96614.66;13246749;22;20014;-47
2022/12/04 18:29:05;;;;;;;7.80;6.65;;;;;;;18.99;54.16;96607.66;13268458;22;20077;-46
2022/12/04 18:34:24;;;;;;;7.97;6.70;;;;;;;18.99;54.25;96607.66;13246301;22;20021;-46
2022/12/04 18:39:43;;;;;;;9.32;6.75;;;;;;;18.99;54.16;96623.88;13246747;22;20014;-48
2022/12/04 18:45:03;;;;;;;7.47;6.53;;;;;;;18.98;54.23;96616.13;13246210;22;20025;-46
2022/12/04 18:50:24;;;;;;;7.13;6.43;;;;;;;18.97;54.41;96623.41;13246491;22;20105;-47
2022/12/04 18:55:44;;;;;;;7.60;6.00;;;;;;;18.96;54.46;96625.31;13268112;22;20013;-48
2022/12/04 19:01:08;;;;;;;7.22;6.13;;;;;;;18.96;54.25;96625.31;13246507;22;20534;-47
2022/12/04 19:06:34;;;;;;;8.40;6.05;;;;;;;18.95;54.15;96628.34;13222927;22;20021;-49
2022/12/04 19:11:53;;;;;;;7.32;5.85;;;;;;;18.94;54.29;96632.16;13246540;22;20014;-46
2022/12/04 19:17:13;;;;;;;7.68;6.35;;;;;;;18.94;54.29;96632.16;13270771;22;20156;-46
2022/12/04 19:22:34;;;;;;;7.78;6.05;;;;;;;18.92;54.22;96631.69;13272065;22;20024;-46
2022/12/04 19:27:54;;;;;;;6.70;6.00;;;;;;;18.92;54.26;96635.19;13271655;22;20009;-47
2022/12/04 19:33:15;;;;;;;6.10;5.50;;;;;;;18.91;54.22;96635.50;13249350;22;20017;-49
2022/12/04 19:38:34;;;;;;;6.22;5.55;;;;;;;18.90;54.19;96631.22;13226623;22;20090;-46
2022/12/04 19:43:55;;;;;;;6.50;5.80;;;;;;;18.90;54.21;96633.94;13250214;22;20071;-47
2022/12/04 19:49:14;;;;;;;6.55;5.75;;;;;;;18.87;54.38;96638.03;13249917;22;20092;-48
2022/12/04 19:54:34;;;;;;;6.30;5.70;;;;;;;18.89;54.31;96643.13;13226111;22;20014;-45
2022/12/04 19:59:54;;;;;;;80.55;41.83;;;;;;;18.87;54.42;96645.34;13249789;22;20323;-46
2022/12/04 20:05:13;;;;;;;45.28;24.13;;;;;;;18.86;54.33;96647.28;13249598;22;20017;-46
2022/12/04 20:10:34;;;;;;;23.67;12.90;;;;;;;18.85;54.45;96639.50;13248359;22;20018;-44
2022/12/04 20:15:54;;;;;;;25.15;12.95;;;;;;;18.86;54.34;96643.78;13249295;22;20677;-47
2022/12/04 20:21:14;;;;;;;24.85;13.57;;;;;;;18.84;54.42;96635.22;13249017;22;20376;-47
2022/12/04 20:26:38;;;;;;;20.42;11.80;;;;;;;18.82;54.20;96634.72;13247992;22;20025;-48
2022/12/04 20:31:57;;;;;;;20.55;11.25;;;;;;;18.82;54.30;96638.25;13248332;22;20018;-48
2022/12/04 20:37:17;;;;;;;19.55;11.57;;;;;;;18.81;54.71;96627.75;13248714;22;20064;-47
2022/12/04 20:42:37;;;;;;;17.20;10.50;;;;;;;18.79;54.57;96633.44;13248790;22;20093;-48
2022/12/04 20:47:56;;;;;;;16.58;10.65;;;;;;;18.79;54.62;96622.66;13248554;22;20042;-45
2022/12/04 20:53:16;;;;;;;16.75;10.13;;;;;;;18.78;54.55;96621.09;13247937;22;20010;-45
2022/12/04 20:58:35;;;;;;;16.83;9.82;;;;;;;18.77;54.46;96624.88;13248372;22;20025;-47
2022/12/04 21:03:54;;;;;;;14.55;9.20;;;;;;;18.75;54.43;96627.91;13248057;22;20013;-46
2022/12/04 21:09:17;;;;;;;13.85;9.50;;;;;;;18.75;54.52;96624.41;13247306;22;20030;-48
2022/12/04 21:20:15;;;;;;;14.75;8.57;;;;;;;18.72;54.34;96631.25;13248172;22;20013;-48
2022/12/04 21:25:35;;;;;;;14.10;8.18;;;;;;;18.72;54.29;96636.66;13269129;22;20014;-46
2022/12/04 21:31:00;;;;;;;14.40;8.65;;;;;;;18.70;54.30;96628.09;13247186;22;20021;-48
2022/12/04 21:36:19;;;;;;;11.13;7.90;;;;;;;18.69;54.19;96621.09;13247577;22;20017;-45
2022/12/04 21:47:17;;;;;;;13.43;8.13;;;;;;;18.67;54.01;96617.94;13247662;22;20139;-45
2022/12/04 21:52:36;;;;;;;10.23;7.93;;;;;;;18.67;54.06;96625.25;13246621;22;20014;-47
2022/12/04 21:57:55;;;;;;;10.73;7.82;;;;;;;18.66;54.22;96616.38;13246528;22;20017;-45
2022/12/04 22:03:15;;;;;;;9.75;7.40;;;;;;;18.66;53.97;96623.63;13268686;22;20014;-45
2022/12/04 22:08:37;;;;;;;10.32;7.30;;;;;;;18.64;53.90;96624.00;13222978;22;20099;-45
2022/12/04 22:13:57;;;;;;;10.07;7.25;;;;;;;18.64;54.02;96617.78;13268555;22;20461;-47
2022/12/04 22:19:16;;;;;;;10.73;7.15;;;;;;;18.63;53.85;96616.22;13247000;22;20014;-48
2022/12/04 22:24:35;;;;;;;9.80;6.75;;;;;;;18.63;53.76;96616.22;13246976;22;20014;-46
2022/12/04 22:29:55;;;;;;;9.30;6.82;;;;;;;18.61;53.93;96618.44;13246153;22;20464;-47
2022/12/04 22:35:15;;;;;;;9.60;7.10;;;;;;;18.60;53.82;96614.94;13247162;22;20085;-46
2022/12/04 22:40:36;;;;;;;9.02;6.22;;;;;;;18.58;53.79;96617.16;13245047;22;20385;-48
2022/12/04 22:45:56;;;;;;;11.65;6.63;;;;;;;18.56;53.74;96625.59;13247098;22;20021;-48
2022/12/04 22:51:18;;;;;;;9.30;6.65;;;;;;;18.56;53.84;96622.09;13250281;22;20014;-47
2022/12/04 22:56:38;;;;;;;8.80;6.35;;;;;;;18.55;53.76;96612.41;13226980;22;20017;-45
2022/12/04 23:01:59;;;;;;;9.70;5.75;;;;;;;18.54;53.69;96610.81;13250223;22;20452;-46
2022/12/04 23:07:19;;;;;;;8.85;6.40;;;;;;;18.53;53.73;96618.13;13250668;22;20021;-48
2022/12/04 23:12:38;;;;;;;8.95;6.47;;;;;;;18.52;53.60;96616.56;13250943;22;20014;-45
2022/12/04 23:17:57;;;;;;;9.38;6.47;;;;;;;18.51;53.61;96614.19;13250976;22;20021;-45
2022/12/04 23:23:17;;;;;;;8.82;5.88;;;;;;;18.50;53.62;96617.97;13250461;22;20014;-48
2022/12/04 23:28:36;;;;;;;7.72;5.72;;;;;;;18.49;53.54;96627.19;13250560;22;20018;-47
2022/12/04 23:33:55;;;;;;;8.20;5.85;;;;;;;18.48;53.55;96639.09;13250115;22;20449;-45
2022/12/04 23:39:15;;;;;;;7.65;5.68;;;;;;;18.47;53.49;96634.81;13272108;22;20013;-44
2022/12/04 23:44:34;;;;;;;6.82;5.30;;;;;;;18.47;53.44;96632.91;13249768;22;20021;-48
2022/12/04 23:49:54;;;;;;;8.10;5.72;;;;;;;18.45;53.48;96626.25;13249317;22;20454;-47
2022/12/04 23:55:13;;;;;;;8.60;5.70;;;;;;;18.44;53.49;96635.44;13249169;22;20453;-45
